createdAt,value
2022-09-28T03:01:51.439Z,3.05
2022-09-28T03:04:22.484Z,2.83
2022-09-28T03:06:54.245Z,3.00
2022-09-28T03:09:25.658Z,2.87
2022-09-28T03:11:55.026Z,3.20
2022-09-28T03:14:22.883Z,3.10
2022-09-28T03:16:51.695Z,3.95
2022-09-28T03:19:22.301Z,3.60
2022-09-28T03:21:49.973Z,3.33
2022-09-28T03:24:17.482Z,3.25
2022-09-28T03:26:45.001Z,3.40
2022-09-28T03:29:12.474Z,3.40
2022-09-28T03:31:40.182Z,3.42
2022-09-28T03:34:09.074Z,3.03
2022-09-28T03:36:36.684Z,3.53
2022-09-28T03:39:04.460Z,3.60
2022-09-28T03:41:31.957Z,3.63
2022-09-28T03:43:59.448Z,3.17
2022-09-28T03:46:27.426Z,3.70
2022-09-28T03:48:57.667Z,3.63
2022-09-28T03:51:26.608Z,3.50
2022-09-28T03:53:54.109Z,3.47
2022-09-28T03:56:21.606Z,3.70
2022-09-28T03:58:49.109Z,3.07
2022-09-28T04:01:17.890Z,3.72
2022-09-28T04:03:46.089Z,2.90
2022-09-28T04:06:14.082Z,3.30
2022-09-28T04:08:43.370Z,3.50
2022-09-28T04:11:11.188Z,3.57
2022-09-28T04:13:38.711Z,3.08
2022-09-28T04:16:06.605Z,4.00
2022-09-28T04:18:35.275Z,4.40
2022-09-28T04:21:06.619Z,4.75
2022-09-28T04:23:34.617Z,3.97
2022-09-28T04:26:03.999Z,5.03
2022-09-28T04:28:49.001Z,4.50
2022-09-28T04:31:18.410Z,4.88
2022-09-28T04:33:45.977Z,5.13
2022-09-28T04:36:13.692Z,3.57
2022-09-28T04:38:52.810Z,3.88
2022-09-28T04:41:22.856Z,4.65
2022-09-28T04:43:50.474Z,3.95
2022-09-28T04:46:18.154Z,4.30
2022-09-28T04:48:45.660Z,3.50
2022-09-28T04:51:13.144Z,4.30
2022-09-28T04:53:40.647Z,4.95
2022-09-28T04:56:09.300Z,4.20
2022-09-28T04:58:38.616Z,4.32
2022-09-28T05:01:07.020Z,6.27
2022-09-28T05:03:35.134Z,4.45
2022-09-28T05:06:02.824Z,4.18
2022-09-28T05:08:30.353Z,4.10
2022-09-28T05:10:58.509Z,4.28
2022-09-28T05:13:27.422Z,3.33
2022-09-28T05:15:59.678Z,2.95
2022-09-28T05:18:29.380Z,3.20
2022-09-28T05:20:56.843Z,3.13
2022-09-28T05:23:24.331Z,3.40
2022-09-28T05:25:51.884Z,3.10
2022-09-28T05:28:23.376Z,3.92
2022-09-28T05:30:50.882Z,3.45
2022-09-28T05:33:19.831Z,4.25
2022-09-28T05:35:52.477Z,4.68
2022-09-28T05:38:21.411Z,3.80
2022-09-28T05:40:48.951Z,4.00
2022-09-28T05:43:16.532Z,3.22
2022-09-28T05:45:44.062Z,3.80
2022-09-28T05:48:11.592Z,5.28
2022-09-28T05:50:40.581Z,3.90
2022-09-28T05:53:09.116Z,4.18
2022-09-28T05:55:37.344Z,3.13
2022-09-28T05:58:06.252Z,4.40
2022-09-28T06:00:34.673Z,4.00
2022-09-28T06:03:06.717Z,3.80
2022-09-28T06:05:36.590Z,4.70
2022-09-28T06:08:06.015Z,5.85
2022-09-28T06:10:34.157Z,4.88
2022-09-28T06:13:02.176Z,5.57
2022-09-28T06:15:30.605Z,3.90
2022-09-28T06:17:58.740Z,3.78
2022-09-28T06:20:26.542Z,4.63
2022-09-28T06:22:54.500Z,2.67
2022-09-28T06:25:23.672Z,3.47
2022-09-28T06:27:58.274Z,4.83
2022-09-28T06:30:27.183Z,3.78
2022-09-28T06:32:56.227Z,3.40
2022-09-28T06:35:24.185Z,3.40
2022-09-28T06:37:51.796Z,3.20
2022-09-28T06:40:19.793Z,4.63
2022-09-28T06:42:57.049Z,3.13
2022-09-28T06:45:25.365Z,3.20
2022-09-28T06:47:57.449Z,2.70
2022-09-28T06:50:25.448Z,4.00
2022-09-28T06:52:53.640Z,3.27
2022-09-28T06:55:21.246Z,2.92
2022-09-28T06:57:49.049Z,3.90
2022-09-28T07:00:18.025Z,3.72
2022-09-28T07:02:45.589Z,3.60
2022-09-28T07:05:13.768Z,3.07
2022-09-28T07:07:42.893Z,3.45
2022-09-28T07:10:10.849Z,3.25
2022-09-28T07:12:38.349Z,3.00
2022-09-28T07:15:07.282Z,3.03
2022-09-28T07:17:47.563Z,3.67
2022-09-28T07:20:22.282Z,3.95
2022-09-28T07:22:53.581Z,2.75
2022-09-28T07:25:21.115Z,4.22
2022-09-28T07:27:48.625Z,2.90
2022-09-28T07:30:16.684Z,4.80
2022-09-28T07:32:48.446Z,2.90
2022-09-28T07:35:16.043Z,3.10
2022-09-28T07:37:43.523Z,3.08
2022-09-28T07:40:28.662Z,2.70
2022-09-28T07:42:56.215Z,2.70
2022-09-28T07:45:24.822Z,2.78
2022-09-28T07:47:55.479Z,4.03
2022-09-28T07:50:23.003Z,3.35
2022-09-28T07:52:50.523Z,3.03
2022-09-28T07:55:18.163Z,2.40
2022-09-28T07:57:47.042Z,3.03
2022-09-28T08:00:15.111Z,2.50
2022-09-28T08:02:42.705Z,3.10
2022-09-28T08:05:12.589Z,3.40
2022-09-28T08:07:40.106Z,3.37
2022-09-28T08:10:08.077Z,2.80
2022-09-28T08:12:35.931Z,3.10
2022-09-28T08:15:04.437Z,2.65
2022-09-28T08:17:31.929Z,2.63
2022-09-28T08:20:30.369Z,2.60
2022-09-28T08:23:03.440Z,3.10
2022-09-28T08:25:30.929Z,2.90
2022-09-28T08:27:58.420Z,2.50
2022-09-28T08:30:26.759Z,2.80
2022-09-28T08:32:54.294Z,2.70
2022-09-28T08:35:22.193Z,3.17
2022-09-28T08:37:54.724Z,2.78
2022-09-28T08:40:26.101Z,2.85
2022-09-28T08:42:56.174Z,3.08
2022-09-28T08:45:26.888Z,3.03
2022-09-28T08:48:13.965Z,3.38
2022-09-28T08:50:46.986Z,3.50
2022-09-28T08:53:18.478Z,3.40
2022-09-28T08:55:47.816Z,3.60
2022-09-28T08:58:18.141Z,3.20
2022-09-28T09:00:48.008Z,3.50
2022-09-28T09:03:17.310Z,3.60
2022-09-28T09:05:49.366Z,3.78
2022-09-28T09:08:25.263Z,3.60
2022-09-28T09:10:57.828Z,4.23
2022-09-28T09:13:34.165Z,3.95
2022-09-28T09:16:04.255Z,4.30
2022-09-28T09:18:37.067Z,3.97
2022-09-28T09:21:09.050Z,3.88
2022-09-28T09:23:38.396Z,3.70
2022-09-28T09:26:14.611Z,4.60
2022-09-28T09:28:57.401Z,4.15
2022-09-28T09:31:34.199Z,4.40
2022-09-28T09:34:08.460Z,4.30
2022-09-28T09:36:39.642Z,4.10
2022-09-28T09:39:18.036Z,4.72
2022-09-28T09:41:52.287Z,4.60
2022-09-28T09:44:35.072Z,3.90
2022-09-28T09:47:08.164Z,4.60
2022-09-28T09:49:37.622Z,4.30
2022-09-28T09:52:08.782Z,4.70
2022-09-28T09:54:38.110Z,4.97
2022-09-28T09:57:11.064Z,4.78
2022-09-28T09:59:40.243Z,4.68
2022-09-28T10:02:13.079Z,5.10
2022-09-28T10:04:43.179Z,4.38
2022-09-28T10:07:14.264Z,4.47
2022-09-28T10:09:43.381Z,4.68
2022-09-28T10:12:15.250Z,5.00
2022-09-28T10:14:42.732Z,4.80
2022-09-28T10:17:11.616Z,4.88
2022-09-28T10:19:39.132Z,4.07
2022-09-28T10:22:07.336Z,4.43
2022-09-28T10:24:39.397Z,4.72
2022-09-28T10:27:08.419Z,4.20
2022-09-28T10:29:44.457Z,4.50
2022-09-28T10:32:23.189Z,4.20
2022-09-28T10:34:51.871Z,4.45
2022-09-28T10:37:19.402Z,5.38
2022-09-28T10:39:47.964Z,5.10
2022-09-28T10:42:20.069Z,4.97
2022-09-28T10:45:00.350Z,5.03
2022-09-28T10:47:30.555Z,4.80
2022-09-28T10:49:58.088Z,5.05
2022-09-28T10:52:35.013Z,4.60
2022-09-28T10:55:02.898Z,5.13
2022-09-28T10:57:33.787Z,4.53
2022-09-28T11:00:03.418Z,4.00
2022-09-28T11:02:35.688Z,4.15
2022-09-28T11:05:04.608Z,4.33
2022-09-28T11:07:32.931Z,3.75
2022-09-28T11:10:04.332Z,3.83
2022-09-28T11:12:36.394Z,3.70
2022-09-28T11:15:06.771Z,3.83
2022-09-28T11:17:38.518Z,4.10
2022-09-28T11:20:27.408Z,6.38
2022-09-28T11:22:56.581Z,4.40
2022-09-28T11:25:25.401Z,5.30
2022-09-28T11:27:57.535Z,4.82
2022-09-28T11:30:28.033Z,4.60
2022-09-28T11:32:58.264Z,3.78
2022-09-28T11:35:29.334Z,4.03
2022-09-28T11:38:04.602Z,3.75
2022-09-28T11:40:39.915Z,3.90
2022-09-28T11:43:15.803Z,4.00
2022-09-28T11:45:52.913Z,4.30
2022-09-28T11:48:24.130Z,3.92
2022-09-28T11:50:53.120Z,4.25
2022-09-28T11:53:23.323Z,4.30
2022-09-28T11:55:54.469Z,3.80
2022-09-28T11:58:25.706Z,3.80
2022-09-28T12:00:58.100Z,3.65
2022-09-28T12:03:29.296Z,3.20
2022-09-28T12:05:58.005Z,3.85
2022-09-28T12:08:27.648Z,3.60
2022-09-28T12:10:57.041Z,3.30
2022-09-28T12:13:27.448Z,3.03
2022-09-28T12:18:50.199Z,3.40
2022-09-28T12:21:29.152Z,3.37
2022-09-28T12:23:57.888Z,3.05
2022-09-28T12:26:29.304Z,3.15
2022-09-28T12:28:58.419Z,3.00
2022-09-28T12:31:32.577Z,3.35
2022-09-28T12:34:00.280Z,2.83
2022-09-28T12:36:32.576Z,2.63
2022-09-28T12:39:35.760Z,3.13
2022-09-28T12:42:07.892Z,2.90
2022-09-28T12:44:41.727Z,3.03
2022-09-28T12:47:19.442Z,2.43
2022-09-28T12:50:37.598Z,2.60
2022-09-28T12:52:43.542Z,2.85
2022-09-28T12:55:20.070Z,2.75
2022-09-28T12:57:53.162Z,2.60
2022-09-28T13:00:22.900Z,7.57
2022-09-28T13:03:00.840Z,4.03
2022-09-28T13:05:34.428Z,6.88
2022-09-28T13:08:06.020Z,2.95
2022-09-28T13:10:37.151Z,3.03
2022-09-28T13:13:15.265Z,2.13
2022-09-28T13:15:45.461Z,1.98
2022-09-28T13:18:17.358Z,2.00
2022-09-28T13:20:59.181Z,1.70
2022-09-28T13:23:28.512Z,2.10
2022-09-28T13:25:58.032Z,1.90
2022-09-28T13:28:27.388Z,1.83
2022-09-28T13:30:56.505Z,2.30
2022-09-28T13:33:28.123Z,1.90
2022-09-28T13:35:55.627Z,2.10
2022-09-28T13:38:43.626Z,1.40
2022-09-28T13:41:29.837Z,1.20
2022-09-28T13:44:24.353Z,1.40
2022-09-28T13:47:00.396Z,1.55
2022-09-28T13:49:37.474Z,1.60
2022-09-28T13:52:06.945Z,1.60
2022-09-28T13:54:42.216Z,1.45
2022-09-28T13:57:14.485Z,1.52
2022-09-28T13:59:47.382Z,1.40
2022-09-28T14:02:20.970Z,1.45
2022-09-28T14:04:58.107Z,1.20
2022-09-28T14:10:17.565Z,1.27
2022-09-28T14:12:46.252Z,1.30
2022-09-28T14:15:32.273Z,1.40
2022-09-28T14:18:01.685Z,1.30
2022-09-28T14:20:31.818Z,1.10
2022-09-28T14:23:15.606Z,1.40
2022-09-28T14:25:45.157Z,1.45
2022-09-28T14:28:32.616Z,1.20
2022-09-28T14:31:07.547Z,1.10
2022-09-28T14:33:35.617Z,1.15
2022-09-28T14:36:06.050Z,1.20
2022-09-28T14:38:52.893Z,1.20
2022-09-28T14:41:29.723Z,1.00
2022-09-28T14:44:02.600Z,0.80
2022-09-28T14:46:31.904Z,1.15
2022-09-28T14:49:01.744Z,1.30
2022-09-28T14:51:58.329Z,1.15
2022-09-28T14:54:26.568Z,1.35
2022-09-28T14:56:58.979Z,1.10
2022-09-28T14:59:27.913Z,1.10
2022-09-28T15:01:58.912Z,1.27
2022-09-28T15:04:28.259Z,1.20
2022-09-28T15:06:58.105Z,1.50
2022-09-28T15:09:28.668Z,1.73
2022-09-28T15:12:00.109Z,1.35
2022-09-28T15:14:28.848Z,1.70
2022-09-28T15:16:56.368Z,1.58
2022-09-28T15:19:28.012Z,1.20
2022-09-28T15:21:56.949Z,1.13
2022-09-28T15:24:24.881Z,1.02
2022-09-28T15:26:53.173Z,1.13
2022-09-28T15:29:22.755Z,0.90
2022-09-28T15:31:54.290Z,1.20
2022-09-28T15:34:46.403Z,1.07
2022-09-28T15:37:16.095Z,0.80
2022-09-28T15:39:44.503Z,0.80
2022-09-28T15:42:12.328Z,0.90
2022-09-28T15:44:43.032Z,0.90
2022-09-28T15:47:13.593Z,1.10
2022-09-28T15:49:42.936Z,1.10
2022-09-28T15:52:24.565Z,1.10
2022-09-28T15:54:52.067Z,1.13
2022-09-28T15:57:34.345Z,1.30
2022-09-28T16:00:02.168Z,1.20
2022-09-28T16:02:29.815Z,1.52
2022-09-28T16:04:58.957Z,1.60
2022-09-28T16:07:29.963Z,1.20
2022-09-28T16:09:58.755Z,1.10
2022-09-28T16:12:31.829Z,1.20
2022-09-28T16:15:00.439Z,1.00
2022-09-28T16:17:32.768Z,0.80
2022-09-28T16:20:01.896Z,0.85
2022-09-28T16:22:32.446Z,0.80
2022-09-28T16:25:00.825Z,0.80
2022-09-28T16:27:29.544Z,0.80
2022-09-28T16:30:05.213Z,0.90
2022-09-28T16:32:38.413Z,0.90
2022-09-28T16:35:16.726Z,0.80
2022-09-28T16:37:48.698Z,0.80
2022-09-28T16:40:16.423Z,0.80
2022-09-28T16:42:49.065Z,0.80
2022-09-28T16:45:19.796Z,0.90
2022-09-28T16:47:47.648Z,1.02
2022-09-28T16:50:16.946Z,0.80
2022-09-28T16:53:02.754Z,0.85
2022-09-28T16:55:40.076Z,1.10
2022-09-28T16:58:08.383Z,0.90
2022-09-28T17:00:36.221Z,1.08
2022-09-28T17:03:05.312Z,1.10
2022-09-28T17:05:32.840Z,1.00
2022-09-28T17:08:02.993Z,1.20
2022-09-28T17:10:41.187Z,1.27
2022-09-28T17:13:21.521Z,1.40
2022-09-28T17:15:50.327Z,1.53
2022-09-28T17:18:18.598Z,1.75
2022-09-28T17:20:48.184Z,2.00
2022-09-28T17:23:17.389Z,2.00
2022-09-28T17:25:45.367Z,1.88
2022-09-28T17:28:18.678Z,1.90
2022-09-28T17:30:46.343Z,1.88
2022-09-28T17:33:14.595Z,1.80
2022-09-28T17:35:42.357Z,1.92
2022-09-28T17:38:10.833Z,2.05
2022-09-28T17:40:39.942Z,1.90
2022-09-28T17:43:07.585Z,1.58
2022-09-28T17:45:38.904Z,1.50
2022-09-28T17:48:06.645Z,1.70
2022-09-28T17:50:35.204Z,1.90
2022-09-28T17:53:06.071Z,2.10
2022-09-28T17:55:34.697Z,2.03
2022-09-28T17:58:09.661Z,2.55
2022-09-28T18:00:37.262Z,3.33
2022-09-28T18:03:04.921Z,2.78
2022-09-28T18:05:32.472Z,2.67
2022-09-28T18:07:59.989Z,3.00
2022-09-28T18:10:27.575Z,3.08
2022-09-28T18:12:55.222Z,3.47
2022-09-28T18:15:24.062Z,3.88
2022-09-28T18:17:51.573Z,3.13
2022-09-28T18:20:19.099Z,3.10
2022-09-28T18:22:46.592Z,2.90
2022-09-28T18:25:14.121Z,2.70
2022-09-28T18:27:41.718Z,2.58
2022-09-28T18:30:09.590Z,2.27
2022-09-28T18:32:38.904Z,2.60
2022-09-28T18:35:07.285Z,2.75
2022-09-28T18:37:37.369Z,2.80
2022-09-28T18:40:05.330Z,2.90
2022-09-28T18:42:35.530Z,2.83
2022-09-28T18:45:03.116Z,2.80
2022-09-28T18:47:30.632Z,3.08
2022-09-28T18:49:59.713Z,3.10
2022-09-28T18:52:27.267Z,2.72
2022-09-28T18:54:54.810Z,2.70
2022-09-28T18:57:22.621Z,2.65
2022-09-28T18:59:50.163Z,2.30
2022-09-28T19:02:17.757Z,2.30
2022-09-28T19:04:45.381Z,2.20
2022-09-28T19:07:14.209Z,2.97
2022-09-28T19:09:44.206Z,2.67
2022-09-28T19:12:11.756Z,3.17
2022-09-28T19:14:39.260Z,2.65
2022-09-28T19:17:06.849Z,3.05
2022-09-28T19:19:34.627Z,3.37
2022-09-28T19:22:02.622Z,3.20
2022-09-28T19:24:31.916Z,3.08
2022-09-28T19:26:59.404Z,3.17
2022-09-28T19:29:27.014Z,4.10
2022-09-28T19:31:56.697Z,4.07
2022-09-28T19:34:27.008Z,4.03
2022-09-28T19:36:54.593Z,4.72
2022-09-28T19:39:22.082Z,4.80
2022-09-28T19:41:51.531Z,4.90
2022-09-28T19:44:24.601Z,5.00
2022-09-28T19:46:53.665Z,4.68
2022-09-28T19:49:22.277Z,4.60
2022-09-28T19:54:38.274Z,4.53
2022-09-28T19:57:08.632Z,5.93
2022-09-28T19:59:36.643Z,5.60
2022-09-28T20:02:04.609Z,5.30
2022-09-28T20:04:32.176Z,5.85
2022-09-28T20:06:59.653Z,5.93
2022-09-28T20:09:27.231Z,5.50
2022-09-28T20:11:55.016Z,5.80
2022-09-28T20:14:26.023Z,5.40
2022-09-28T20:16:58.187Z,5.50
2022-09-28T20:19:26.207Z,4.97
2022-09-28T20:21:53.931Z,5.03
2022-09-28T20:24:21.450Z,5.07
2022-09-28T20:26:49.591Z,5.00
2022-09-28T20:29:17.528Z,4.50
2022-09-28T20:31:46.347Z,4.82
2022-09-28T20:34:13.849Z,4.17
2022-09-28T20:36:44.642Z,3.92
2022-09-28T20:39:12.662Z,3.80
2022-09-28T20:41:41.124Z,3.83
2022-09-28T20:44:09.579Z,3.80
2022-09-28T20:46:37.309Z,3.90
2022-09-28T20:49:07.179Z,3.50
2022-09-28T20:51:34.655Z,3.65
2022-09-28T20:54:02.178Z,3.42
2022-09-28T20:56:30.596Z,3.70
2022-09-28T20:58:58.235Z,3.70
